sensor_id;sensor_type;location;lat;lon;timestamp;P1;durP1;ratioP1;P2;durP2;ratioP2
30000;SDS011;16845;48.670;9.000;2022-08-02T00:00:23;7.32;;;4.55;;
30000;SDS011;16845;48.670;9.000;2022-08-02T00:02:51;6.97;;;4.25;;
30000;SDS011;16845;48.670;9.000;2022-08-02T00:05:18;6.07;;;4.63;;
30000;SDS011;16845;48.670;9.000;2022-08-02T00:07:46;11.95;;;4.50;;
30000;SDS011;16845;48.670;9.000;2022-08-02T00:10:14;5.93;;;4.22;;
30000;SDS011;16845;48.670;9.000;2022-08-02T00:12:42;9.10;;;4.47;;
30000;SDS011;16845;48.670;9.000;2022-08-02T00:15:11;8.20;;;4.63;;
30000;SDS011;16845;48.670;9.000;2022-08-02T00:17:41;7.10;;;4.38;;
30000;SDS011;16845;48.670;9.000;2022-08-02T00:20:10;6.00;;;4.78;;
30000;SDS011;16845;48.670;9.000;2022-08-02T00:22:38;8.15;;;4.40;;
30000;SDS011;16845;48.670;9.000;2022-08-02T00:25:07;6.72;;;4.38;;
30000;SDS011;16845;48.670;9.000;2022-08-02T00:27:35;9.68;;;4.13;;
30000;SDS011;16845;48.670;9.000;2022-08-02T00:30:03;6.78;;;4.05;;
30000;SDS011;16845;48.670;9.000;2022-08-02T00:32:33;8.07;;;4.25;;
30000;SDS011;16845;48.670;9.000;2022-08-02T00:35:01;4.82;;;3.80;;
30000;SDS011;16845;48.670;9.000;2022-08-02T00:37:29;8.38;;;3.50;;
30000;SDS011;16845;48.670;9.000;2022-08-02T00:39:57;6.45;;;3.70;;
30000;SDS011;16845;48.670;9.000;2022-08-02T00:42:25;10.48;;;3.63;;
30000;SDS011;16845;48.670;9.000;2022-08-02T00:44:52;3.65;;;3.33;;
30000;SDS011;16845;48.670;9.000;2022-08-02T00:47:20;6.13;;;3.50;;
30000;SDS011;16845;48.670;9.000;2022-08-02T00:49:50;4.40;;;3.78;;
30000;SDS011;16845;48.670;9.000;2022-08-02T00:52:17;6.93;;;3.50;;
30000;SDS011;16845;48.670;9.000;2022-08-02T00:54:45;6.20;;;3.00;;
30000;SDS011;16845;48.670;9.000;2022-08-02T00:57:13;4.25;;;3.28;;
30000;SDS011;16845;48.670;9.000;2022-08-02T00:59:41;5.00;;;2.75;;
30000;SDS011;16845;48.670;9.000;2022-08-02T01:02:09;3.50;;;3.20;;
30000;SDS011;16845;48.670;9.000;2022-08-02T01:04:37;3.53;;;2.92;;
30000;SDS011;16845;48.670;9.000;2022-08-02T01:07:07;7.75;;;4.07;;
30000;SDS011;16845;48.670;9.000;2022-08-02T01:09:39;6.72;;;3.72;;
30000;SDS011;16845;48.670;9.000;2022-08-02T01:12:08;4.85;;;3.30;;
30000;SDS011;16845;48.670;9.000;2022-08-02T01:14:37;5.88;;;3.88;;
30000;SDS011;16845;48.670;9.000;2022-08-02T01:17:07;6.30;;;3.97;;
30000;SDS011;16845;48.670;9.000;2022-08-02T01:19:42;8.65;;;3.60;;
30000;SDS011;16845;48.670;9.000;2022-08-02T01:22:24;5.47;;;4.13;;
30000;SDS011;16845;48.670;9.000;2022-08-02T01:25:35;8.32;;;4.03;;
30000;SDS011;16845;48.670;9.000;2022-08-02T01:28:25;9.15;;;3.80;;
30000;SDS011;16845;48.670;9.000;2022-08-02T01:30:57;8.45;;;3.88;;
30000;SDS011;16845;48.670;9.000;2022-08-02T01:33:31;6.45;;;4.57;;
30000;SDS011;16845;48.670;9.000;2022-08-02T01:36:05;4.78;;;3.92;;
30000;SDS011;16845;48.670;9.000;2022-08-02T01:38:38;6.20;;;3.92;;
30000;SDS011;16845;48.670;9.000;2022-08-02T01:41:11;5.70;;;3.80;;
30000;SDS011;16845;48.670;9.000;2022-08-02T01:43:45;5.85;;;4.18;;
30000;SDS011;16845;48.670;9.000;2022-08-02T01:46:15;5.50;;;4.20;;
30000;SDS011;16845;48.670;9.000;2022-08-02T01:48:45;7.35;;;3.97;;
30000;SDS011;16845;48.670;9.000;2022-08-02T01:51:16;6.97;;;3.97;;
30000;SDS011;16845;48.670;9.000;2022-08-02T01:54:06;7.05;;;4.18;;
30000;SDS011;16845;48.670;9.000;2022-08-02T01:56:38;4.75;;;3.90;;
30000;SDS011;16845;48.670;9.000;2022-08-02T01:59:10;7.38;;;3.92;;
30000;SDS011;16845;48.670;9.000;2022-08-02T02:01:40;9.00;;;3.67;;
30000;SDS011;16845;48.670;9.000;2022-08-02T02:04:09;8.82;;;3.72;;
30000;SDS011;16845;48.670;9.000;2022-08-02T02:06:39;5.90;;;3.67;;
30000;SDS011;16845;48.670;9.000;2022-08-02T02:09:08;11.05;;;3.45;;
30000;SDS011;16845;48.670;9.000;2022-08-02T02:11:39;8.32;;;3.30;;
30000;SDS011;16845;48.670;9.000;2022-08-02T02:14:30;6.43;;;4.18;;
30000;SDS011;16845;48.670;9.000;2022-08-02T02:17:01;8.82;;;4.00;;
30000;SDS011;16845;48.670;9.000;2022-08-02T02:19:29;4.15;;;3.72;;
30000;SDS011;16845;48.670;9.000;2022-08-02T02:22:00;4.55;;;3.40;;
30000;SDS011;16845;48.670;9.000;2022-08-02T02:24:28;4.43;;;3.85;;
30000;SDS011;16845;48.670;9.000;2022-08-02T02:26:57;5.13;;;4.07;;
30000;SDS011;16845;48.670;9.000;2022-08-02T02:29:27;8.80;;;4.05;;
30000;SDS011;16845;48.670;9.000;2022-08-02T02:31:59;6.85;;;4.35;;
30000;SDS011;16845;48.670;9.000;2022-08-02T02:34:28;5.65;;;4.47;;
30000;SDS011;16845;48.670;9.000;2022-08-02T02:37:00;5.80;;;4.00;;
30000;SDS011;16845;48.670;9.000;2022-08-02T02:39:31;6.38;;;4.50;;
30000;SDS011;16845;48.670;9.000;2022-08-02T02:42:01;4.20;;;3.70;;
30000;SDS011;16845;48.670;9.000;2022-08-02T02:44:33;9.68;;;4.28;;
30000;SDS011;16845;48.670;9.000;2022-08-02T02:47:06;7.25;;;3.55;;
30000;SDS011;16845;48.670;9.000;2022-08-02T02:49:36;6.45;;;4.38;;
30000;SDS011;16845;48.670;9.000;2022-08-02T02:52:05;6.45;;;3.85;;
30000;SDS011;16845;48.670;9.000;2022-08-02T02:54:35;5.05;;;3.90;;
30000;SDS011;16845;48.670;9.000;2022-08-02T02:57:05;5.97;;;4.07;;
30000;SDS011;16845;48.670;9.000;2022-08-02T02:59:34;6.85;;;4.25;;
30000;SDS011;16845;48.670;9.000;2022-08-02T03:02:16;8.27;;;4.32;;
30000;SDS011;16845;48.670;9.000;2022-08-02T03:04:45;7.68;;;3.97;;
30000;SDS011;16845;48.670;9.000;2022-08-02T03:07:23;6.35;;;4.25;;
30000;SDS011;16845;48.670;9.000;2022-08-02T03:09:51;7.30;;;3.65;;
30000;SDS011;16845;48.670;9.000;2022-08-02T03:12:21;6.80;;;4.10;;
30000;SDS011;16845;48.670;9.000;2022-08-02T03:14:57;6.95;;;3.47;;
30000;SDS011;16845;48.670;9.000;2022-08-02T03:17:26;5.55;;;3.83;;
30000;SDS011;16845;48.670;9.000;2022-08-02T03:20:06;4.00;;;3.30;;
30000;SDS011;16845;48.670;9.000;2022-08-02T03:22:35;7.20;;;3.80;;
30000;SDS011;16845;48.670;9.000;2022-08-02T03:25:04;5.07;;;3.65;;
30000;SDS011;16845;48.670;9.000;2022-08-02T03:27:33;5.47;;;4.25;;
30000;SDS011;16845;48.670;9.000;2022-08-02T03:30:00;3.55;;;3.15;;
30000;SDS011;16845;48.670;9.000;2022-08-02T03:32:31;3.58;;;2.67;;
30000;SDS011;16845;48.670;9.000;2022-08-02T03:34:59;6.07;;;3.95;;
30000;SDS011;16845;48.670;9.000;2022-08-02T03:37:28;7.18;;;3.83;;
30000;SDS011;16845;48.670;9.000;2022-08-02T03:39:57;7.00;;;3.70;;
30000;SDS011;16845;48.670;9.000;2022-08-02T03:42:26;5.13;;;3.75;;
30000;SDS011;16845;48.670;9.000;2022-08-02T03:44:55;4.47;;;3.58;;
30000;SDS011;16845;48.670;9.000;2022-08-02T03:47:31;7.68;;;3.80;;
30000;SDS011;16845;48.670;9.000;2022-08-02T03:50:00;3.60;;;3.30;;
30000;SDS011;16845;48.670;9.000;2022-08-02T03:52:28;5.47;;;3.42;;
30000;SDS011;16845;48.670;9.000;2022-08-02T03:54:57;7.55;;;3.28;;
30000;SDS011;16845;48.670;9.000;2022-08-02T03:57:25;15.05;;;3.40;;
30000;SDS011;16845;48.670;9.000;2022-08-02T03:59:53;3.95;;;3.63;;
30000;SDS011;16845;48.670;9.000;2022-08-02T04:02:21;3.67;;;3.28;;
30000;SDS011;16845;48.670;9.000;2022-08-02T04:04:51;4.68;;;3.90;;
30000;SDS011;16845;48.670;9.000;2022-08-02T04:07:18;4.78;;;3.55;;
30000;SDS011;16845;48.670;9.000;2022-08-02T04:10:06;6.25;;;3.50;;
30000;SDS011;16845;48.670;9.000;2022-08-02T04:12:35;6.57;;;3.38;;
30000;SDS011;16845;48.670;9.000;2022-08-02T04:15:02;5.38;;;3.17;;
30000;SDS011;16845;48.670;9.000;2022-08-02T04:17:32;4.35;;;3.33;;
30000;SDS011;16845;48.670;9.000;2022-08-02T04:20:05;6.97;;;3.70;;
30000;SDS011;16845;48.670;9.000;2022-08-02T04:22:39;4.15;;;3.22;;
30000;SDS011;16845;48.670;9.000;2022-08-02T04:25:13;8.60;;;3.10;;
30000;SDS011;16845;48.670;9.000;2022-08-02T04:27:42;5.57;;;3.30;;
30000;SDS011;16845;48.670;9.000;2022-08-02T04:30:32;10.40;;;4.43;;
30000;SDS011;16845;48.670;9.000;2022-08-02T04:33:00;4.93;;;3.53;;
30000;SDS011;16845;48.670;9.000;2022-08-02T04:35:30;7.88;;;3.45;;
30000;SDS011;16845;48.670;9.000;2022-08-02T04:37:58;3.33;;;3.03;;
30000;SDS011;16845;48.670;9.000;2022-08-02T04:40:35;4.57;;;3.92;;
30000;SDS011;16845;48.670;9.000;2022-08-02T04:43:03;5.68;;;3.65;;
30000;SDS011;16845;48.670;9.000;2022-08-02T04:45:31;7.72;;;2.90;;
30000;SDS011;16845;48.670;9.000;2022-08-02T04:48:00;5.90;;;3.38;;
30000;SDS011;16845;48.670;9.000;2022-08-02T04:50:32;9.40;;;3.58;;
30000;SDS011;16845;48.670;9.000;2022-08-02T04:53:00;7.47;;;3.58;;
30000;SDS011;16845;48.670;9.000;2022-08-02T04:55:28;8.40;;;3.85;;
30000;SDS011;16845;48.670;9.000;2022-08-02T04:57:56;5.22;;;3.13;;
30000;SDS011;16845;48.670;9.000;2022-08-02T05:00:24;7.15;;;3.35;;
30000;SDS011;16845;48.670;9.000;2022-08-02T05:02:54;6.10;;;3.95;;
30000;SDS011;16845;48.670;9.000;2022-08-02T05:05:22;7.78;;;4.05;;
30000;SDS011;16845;48.670;9.000;2022-08-02T05:07:52;5.43;;;3.08;;
30000;SDS011;16845;48.670;9.000;2022-08-02T05:10:20;21.77;;;5.13;;
30000;SDS011;16845;48.670;9.000;2022-08-02T05:12:48;6.43;;;3.65;;
30000;SDS011;16845;48.670;9.000;2022-08-02T05:15:16;4.03;;;3.40;;
30000;SDS011;16845;48.670;9.000;2022-08-02T05:17:45;4.57;;;3.38;;
30000;SDS011;16845;48.670;9.000;2022-08-02T05:20:14;6.32;;;3.42;;
30000;SDS011;16845;48.670;9.000;2022-08-02T05:22:43;5.32;;;2.80;;
30000;SDS011;16845;48.670;9.000;2022-08-02T05:25:13;4.13;;;2.90;;
30000;SDS011;16845;48.670;9.000;2022-08-02T05:27:41;4.35;;;2.92;;
30000;SDS011;16845;48.670;9.000;2022-08-02T05:30:09;6.88;;;3.28;;
30000;SDS011;16845;48.670;9.000;2022-08-02T05:32:44;5.13;;;2.80;;
30000;SDS011;16845;48.670;9.000;2022-08-02T05:35:15;3.10;;;2.70;;
30000;SDS011;16845;48.670;9.000;2022-08-02T05:37:45;4.78;;;3.08;;
30000;SDS011;16845;48.670;9.000;2022-08-02T05:40:14;3.88;;;3.13;;
30000;SDS011;16845;48.670;9.000;2022-08-02T05:42:50;5.72;;;2.92;;
30000;SDS011;16845;48.670;9.000;2022-08-02T05:45:18;4.03;;;3.17;;
30000;SDS011;16845;48.670;9.000;2022-08-02T05:47:46;4.20;;;2.78;;
30000;SDS011;16845;48.670;9.000;2022-08-02T05:50:14;4.47;;;2.75;;
30000;SDS011;16845;48.670;9.000;2022-08-02T05:52:49;3.03;;;2.72;;
30000;SDS011;16845;48.670;9.000;2022-08-02T05:55:23;4.35;;;3.38;;
30000;SDS011;16845;48.670;9.000;2022-08-02T05:57:57;5.32;;;2.95;;
30000;SDS011;16845;48.670;9.000;2022-08-02T06:00:30;6.38;;;3.33;;
30000;SDS011;16845;48.670;9.000;2022-08-02T06:03:02;6.38;;;3.42;;
30000;SDS011;16845;48.670;9.000;2022-08-02T06:05:45;4.38;;;3.13;;
30000;SDS011;16845;48.670;9.000;2022-08-02T06:08:22;10.52;;;3.17;;
30000;SDS011;16845;48.670;9.000;2022-08-02T06:10:55;5.40;;;3.63;;
30000;SDS011;16845;48.670;9.000;2022-08-02T06:13:25;5.10;;;3.10;;
30000;SDS011;16845;48.670;9.000;2022-08-02T06:15:54;3.90;;;3.25;;
30000;SDS011;16845;48.670;9.000;2022-08-02T06:18:25;10.00;;;3.55;;
30000;SDS011;16845;48.670;9.000;2022-08-02T06:20:54;4.82;;;3.03;;
30000;SDS011;16845;48.670;9.000;2022-08-02T06:23:44;7.53;;;3.20;;
30000;SDS011;16845;48.670;9.000;2022-08-02T06:26:26;5.57;;;3.15;;
30000;SDS011;16845;48.670;9.000;2022-08-02T06:28:55;6.30;;;3.50;;
30000;SDS011;16845;48.670;9.000;2022-08-02T06:31:24;3.38;;;2.97;;
30000;SDS011;16845;48.670;9.000;2022-08-02T06:33:52;6.28;;;3.80;;
30000;SDS011;16845;48.670;9.000;2022-08-02T06:36:21;4.60;;;3.00;;
30000;SDS011;16845;48.670;9.000;2022-08-02T06:38:57;7.35;;;3.45;;
30000;SDS011;16845;48.670;9.000;2022-08-02T06:41:35;6.05;;;3.40;;
30000;SDS011;16845;48.670;9.000;2022-08-02T06:44:06;7.00;;;4.22;;
30000;SDS011;16845;48.670;9.000;2022-08-02T06:46:54;7.10;;;3.28;;
30000;SDS011;16845;48.670;9.000;2022-08-02T06:49:38;4.03;;;3.33;;
30000;SDS011;16845;48.670;9.000;2022-08-02T06:52:20;4.13;;;3.53;;
30000;SDS011;16845;48.670;9.000;2022-08-02T06:54:54;4.80;;;3.42;;
30000;SDS011;16845;48.670;9.000;2022-08-02T06:57:24;3.55;;;3.22;;
30000;SDS011;16845;48.670;9.000;2022-08-02T06:59:52;6.32;;;3.90;;
30000;SDS011;16845;48.670;9.000;2022-08-02T07:02:20;10.32;;;3.70;;
30000;SDS011;16845;48.670;9.000;2022-08-02T07:04:48;4.28;;;3.60;;
30000;SDS011;16845;48.670;9.000;2022-08-02T07:07:16;8.15;;;4.38;;
30000;SDS011;16845;48.670;9.000;2022-08-02T07:09:44;8.23;;;4.35;;
30000;SDS011;16845;48.670;9.000;2022-08-02T07:12:28;8.57;;;4.47;;
30000;SDS011;16845;48.670;9.000;2022-08-02T07:14:57;4.93;;;4.43;;
30000;SDS011;16845;48.670;9.000;2022-08-02T07:17:26;11.77;;;5.90;;
30000;SDS011;16845;48.670;9.000;2022-08-02T07:19:54;8.75;;;4.55;;
30000;SDS011;16845;48.670;9.000;2022-08-02T07:22:22;9.27;;;4.90;;
30000;SDS011;16845;48.670;9.000;2022-08-02T07:24:52;10.88;;;4.85;;
30000;SDS011;16845;48.670;9.000;2022-08-02T07:27:21;7.93;;;4.38;;
30000;SDS011;16845;48.670;9.000;2022-08-02T07:29:51;5.22;;;4.43;;
30000;SDS011;16845;48.670;9.000;2022-08-02T07:32:20;5.63;;;4.53;;
30000;SDS011;16845;48.670;9.000;2022-08-02T07:34:50;8.98;;;4.40;;
30000;SDS011;16845;48.670;9.000;2022-08-02T07:37:21;11.02;;;4.88;;
30000;SDS011;16845;48.670;9.000;2022-08-02T07:40:10;8.23;;;5.30;;
30000;SDS011;16845;48.670;9.000;2022-08-02T07:42:46;9.02;;;4.85;;
30000;SDS011;16845;48.670;9.000;2022-08-02T07:45:16;6.10;;;4.07;;
30000;SDS011;16845;48.670;9.000;2022-08-02T07:47:44;5.55;;;4.32;;
30000;SDS011;16845;48.670;9.000;2022-08-02T07:50:13;9.43;;;4.78;;
30000;SDS011;16845;48.670;9.000;2022-08-02T07:52:43;7.43;;;4.25;;
30000;SDS011;16845;48.670;9.000;2022-08-02T07:55:12;8.32;;;4.95;;
30000;SDS011;16845;48.670;9.000;2022-08-02T07:57:41;11.35;;;5.10;;
30000;SDS011;16845;48.670;9.000;2022-08-02T08:00:12;6.05;;;4.68;;
30000;SDS011;16845;48.670;9.000;2022-08-02T08:02:44;6.55;;;4.60;;
30000;SDS011;16845;48.670;9.000;2022-08-02T08:05:12;5.70;;;4.32;;
30000;SDS011;16845;48.670;9.000;2022-08-02T08:07:41;8.57;;;4.70;;
30000;SDS011;16845;48.670;9.000;2022-08-02T08:10:09;4.82;;;3.50;;
30000;SDS011;16845;48.670;9.000;2022-08-02T08:12:37;11.73;;;5.45;;
30000;SDS011;16845;48.670;9.000;2022-08-02T08:15:05;8.32;;;4.82;;
30000;SDS011;16845;48.670;9.000;2022-08-02T08:17:34;7.15;;;4.07;;
30000;SDS011;16845;48.670;9.000;2022-08-02T08:20:05;8.57;;;4.15;;
30000;SDS011;16845;48.670;9.000;2022-08-02T08:22:36;6.70;;;4.30;;
30000;SDS011;16845;48.670;9.000;2022-08-02T08:25:04;5.80;;;4.60;;
30000;SDS011;16845;48.670;9.000;2022-08-02T08:27:32;7.97;;;4.18;;
30000;SDS011;16845;48.670;9.000;2022-08-02T08:30:00;5.38;;;3.90;;
30000;SDS011;16845;48.670;9.000;2022-08-02T08:32:28;9.27;;;4.28;;
30000;SDS011;16845;48.670;9.000;2022-08-02T08:34:57;5.15;;;3.75;;
30000;SDS011;16845;48.670;9.000;2022-08-02T08:37:26;7.28;;;4.20;;
30000;SDS011;16845;48.670;9.000;2022-08-02T08:39:59;6.00;;;4.68;;
30000;SDS011;16845;48.670;9.000;2022-08-02T08:42:27;4.28;;;3.88;;
30000;SDS011;16845;48.670;9.000;2022-08-02T08:44:57;8.77;;;4.35;;
30000;SDS011;16845;48.670;9.000;2022-08-02T08:47:27;6.55;;;3.80;;
30000;SDS011;16845;48.670;9.000;2022-08-02T08:50:00;7.32;;;4.15;;
30000;SDS011;16845;48.670;9.000;2022-08-02T08:52:33;8.50;;;3.45;;
30000;SDS011;16845;48.670;9.000;2022-08-02T08:55:03;5.38;;;3.30;;
30000;SDS011;16845;48.670;9.000;2022-08-02T08:57:31;4.13;;;3.38;;
30000;SDS011;16845;48.670;9.000;2022-08-02T09:00:03;3.63;;;2.83;;
30000;SDS011;16845;48.670;9.000;2022-08-02T09:02:32;5.20;;;2.90;;
30000;SDS011;16845;48.670;9.000;2022-08-02T09:05:00;3.35;;;3.05;;
30000;SDS011;16845;48.670;9.000;2022-08-02T09:07:29;3.60;;;2.88;;
30000;SDS011;16845;48.670;9.000;2022-08-02T09:09:58;3.88;;;3.53;;
30000;SDS011;16845;48.670;9.000;2022-08-02T09:12:26;4.15;;;3.13;;
30000;SDS011;16845;48.670;9.000;2022-08-02T09:14:54;3.97;;;3.22;;
30000;SDS011;16845;48.670;9.000;2022-08-02T09:17:21;3.90;;;2.88;;
30000;SDS011;16845;48.670;9.000;2022-08-02T09:19:54;4.85;;;3.67;;
30000;SDS011;16845;48.670;9.000;2022-08-02T09:22:33;6.53;;;4.07;;
30000;SDS011;16845;48.670;9.000;2022-08-02T09:25:03;6.28;;;3.92;;
30000;SDS011;16845;48.670;9.000;2022-08-02T09:27:34;11.07;;;4.13;;
30000;SDS011;16845;48.670;9.000;2022-08-02T09:30:02;8.00;;;3.65;;
30000;SDS011;16845;48.670;9.000;2022-08-02T09:32:44;4.65;;;2.92;;
30000;SDS011;16845;48.670;9.000;2022-08-02T09:35:13;6.07;;;3.50;;
30000;SDS011;16845;48.670;9.000;2022-08-02T09:38:17;6.18;;;2.97;;
30000;SDS011;16845;48.670;9.000;2022-08-02T09:40:46;5.03;;;3.10;;
30000;SDS011;16845;48.670;9.000;2022-08-02T09:43:14;7.18;;;3.47;;
30000;SDS011;16845;48.670;9.000;2022-08-02T09:45:42;3.88;;;3.15;;
30000;SDS011;16845;48.670;9.000;2022-08-02T09:48:10;4.63;;;3.28;;
30000;SDS011;16845;48.670;9.000;2022-08-02T09:50:39;10.18;;;3.33;;
30000;SDS011;16845;48.670;9.000;2022-08-02T09:53:10;4.95;;;3.25;;
30000;SDS011;16845;48.670;9.000;2022-08-02T09:55:39;6.82;;;4.18;;
30000;SDS011;16845;48.670;9.000;2022-08-02T09:58:18;4.22;;;3.45;;
30000;SDS011;16845;48.670;9.000;2022-08-02T10:00:51;9.98;;;3.17;;
30000;SDS011;16845;48.670;9.000;2022-08-02T10:03:21;5.85;;;3.03;;
30000;SDS011;16845;48.670;9.000;2022-08-02T10:06:00;3.70;;;3.25;;
30000;SDS011;16845;48.670;9.000;2022-08-02T10:08:29;4.85;;;2.42;;
30000;SDS011;16845;48.670;9.000;2022-08-02T10:10:59;3.72;;;2.47;;
30000;SDS011;16845;48.670;9.000;2022-08-02T10:13:30;2.67;;;2.25;;
30000;SDS011;16845;48.670;9.000;2022-08-02T10:15:59;2.47;;;1.98;;
30000;SDS011;16845;48.670;9.000;2022-08-02T10:18:29;7.68;;;2.30;;
30000;SDS011;16845;48.670;9.000;2022-08-02T10:21:09;6.32;;;2.20;;
30000;SDS011;16845;48.670;9.000;2022-08-02T10:23:42;3.70;;;2.15;;
30000;SDS011;16845;48.670;9.000;2022-08-02T10:26:12;6.05;;;2.83;;
30000;SDS011;16845;48.670;9.000;2022-08-02T10:28:45;6.28;;;2.38;;
30000;SDS011;16845;48.670;9.000;2022-08-02T10:31:17;6.40;;;2.50;;
30000;SDS011;16845;48.670;9.000;2022-08-02T10:33:48;3.15;;;2.05;;
30000;SDS011;16845;48.670;9.000;2022-08-02T10:36:19;4.60;;;1.88;;
30000;SDS011;16845;48.670;9.000;2022-08-02T10:38:48;3.42;;;2.50;;
30000;SDS011;16845;48.670;9.000;2022-08-02T10:44:07;3.13;;;2.20;;
30000;SDS011;16845;48.670;9.000;2022-08-02T10:46:50;2.75;;;2.00;;
30000;SDS011;16845;48.670;9.000;2022-08-02T10:49:19;3.25;;;1.95;;
30000;SDS011;16845;48.670;9.000;2022-08-02T10:52:06;3.45;;;2.10;;
30000;SDS011;16845;48.670;9.000;2022-08-02T10:54:37;4.55;;;1.90;;
30000;SDS011;16845;48.670;9.000;2022-08-02T10:57:13;4.63;;;2.00;;
30000;SDS011;16845;48.670;9.000;2022-08-02T10:59:45;4.63;;;1.70;;
30000;SDS011;16845;48.670;9.000;2022-08-02T11:02:23;3.25;;;2.00;;
30000;SDS011;16845;48.670;9.000;2022-08-02T11:05:02;1.95;;;1.70;;
30000;SDS011;16845;48.670;9.000;2022-08-02T11:07:36;6.22;;;1.52;;
30000;SDS011;16845;48.670;9.000;2022-08-02T11:13:05;5.57;;;1.80;;
30000;SDS011;16845;48.670;9.000;2022-08-02T11:15:56;5.28;;;1.73;;
30000;SDS011;16845;48.670;9.000;2022-08-02T11:21:32;2.40;;;2.17;;
30000;SDS011;16845;48.670;9.000;2022-08-02T11:26:50;2.05;;;1.92;;
30000;SDS011;16845;48.670;9.000;2022-08-02T11:29:18;2.55;;;2.20;;
30000;SDS011;16845;48.670;9.000;2022-08-02T11:31:48;6.70;;;1.92;;
30000;SDS011;16845;48.670;9.000;2022-08-02T11:34:16;4.10;;;1.73;;
30000;SDS011;16845;48.670;9.000;2022-08-02T11:37:03;4.65;;;2.05;;
30000;SDS011;16845;48.670;9.000;2022-08-02T11:39:31;2.72;;;1.83;;
30000;SDS011;16845;48.670;9.000;2022-08-02T11:41:59;4.75;;;1.98;;
30000;SDS011;16845;48.670;9.000;2022-08-02T11:44:28;5.28;;;1.50;;
30000;SDS011;16845;48.670;9.000;2022-08-02T11:47:06;5.10;;;2.33;;
30000;SDS011;16845;48.670;9.000;2022-08-02T11:49:35;2.20;;;2.00;;
30000;SDS011;16845;48.670;9.000;2022-08-02T11:52:04;3.58;;;2.17;;
30000;SDS011;16845;48.670;9.000;2022-08-02T11:54:37;3.50;;;2.20;;
30000;SDS011;16845;48.670;9.000;2022-08-02T11:57:10;6.25;;;2.25;;
30000;SDS011;16845;48.670;9.000;2022-08-02T11:59:45;4.13;;;2.08;;
30000;SDS011;16845;48.670;9.000;2022-08-02T12:02:15;7.70;;;2.75;;
30000;SDS011;16845;48.670;9.000;2022-08-02T12:04:50;3.30;;;2.00;;
30000;SDS011;16845;48.670;9.000;2022-08-02T12:07:27;2.55;;;2.03;;
30000;SDS011;16845;48.670;9.000;2022-08-02T12:10:02;3.20;;;2.08;;
30000;SDS011;16845;48.670;9.000;2022-08-02T12:12:32;3.60;;;2.08;;
30000;SDS011;16845;48.670;9.000;2022-08-02T12:15:14;5.05;;;2.10;;
30000;SDS011;16845;48.670;9.000;2022-08-02T12:17:46;3.58;;;1.77;;
30000;SDS011;16845;48.670;9.000;2022-08-02T12:20:35;4.63;;;2.35;;
30000;SDS011;16845;48.670;9.000;2022-08-02T12:23:04;2.13;;;1.92;;
30000;SDS011;16845;48.670;9.000;2022-08-02T12:25:32;3.97;;;1.88;;
30000;SDS011;16845;48.670;9.000;2022-08-02T12:28:11;3.42;;;1.90;;
30000;SDS011;16845;48.670;9.000;2022-08-02T12:30:49;3.17;;;2.00;;
30000;SDS011;16845;48.670;9.000;2022-08-02T12:33:20;7.82;;;2.17;;
30000;SDS011;16845;48.670;9.000;2022-08-02T12:35:49;6.63;;;2.53;;
30000;SDS011;16845;48.670;9.000;2022-08-02T12:38:18;4.93;;;2.45;;
30000;SDS011;16845;48.670;9.000;2022-08-02T12:40:46;5.72;;;2.22;;
30000;SDS011;16845;48.670;9.000;2022-08-02T12:43:15;3.40;;;2.17;;
30000;SDS011;16845;48.670;9.000;2022-08-02T12:45:46;2.72;;;2.53;;
30000;SDS011;16845;48.670;9.000;2022-08-02T12:48:16;1.90;;;1.80;;
30000;SDS011;16845;48.670;9.000;2022-08-02T12:51:16;2.20;;;1.80;;
30000;SDS011;16845;48.670;9.000;2022-08-02T12:53:45;5.28;;;2.45;;
30000;SDS011;16845;48.670;9.000;2022-08-02T12:56:25;3.45;;;2.20;;
30000;SDS011;16845;48.670;9.000;2022-08-02T12:58:54;2.47;;;1.80;;
30000;SDS011;16845;48.670;9.000;2022-08-02T13:01:24;3.45;;;1.80;;
30000;SDS011;16845;48.670;9.000;2022-08-02T13:03:55;1.70;;;1.60;;
30000;SDS011;16845;48.670;9.000;2022-08-02T13:06:38;2.00;;;1.80;;
30000;SDS011;16845;48.670;9.000;2022-08-02T13:09:11;2.45;;;1.70;;
30000;SDS011;16845;48.670;9.000;2022-08-02T13:11:41;3.63;;;1.90;;
30000;SDS011;16845;48.670;9.000;2022-08-02T13:14:10;2.20;;;1.75;;
30000;SDS011;16845;48.670;9.000;2022-08-02T13:16:39;2.58;;;1.65;;
30000;SDS011;16845;48.670;9.000;2022-08-02T13:19:09;1.83;;;1.73;;
30000;SDS011;16845;48.670;9.000;2022-08-02T13:21:38;3.22;;;1.80;;
30000;SDS011;16845;48.670;9.000;2022-08-02T13:24:26;3.33;;;1.83;;
30000;SDS011;16845;48.670;9.000;2022-08-02T13:27:13;2.20;;;2.00;;
30000;SDS011;16845;48.670;9.000;2022-08-02T13:29:41;2.58;;;1.98;;
30000;SDS011;16845;48.670;9.000;2022-08-02T13:32:09;2.03;;;1.77;;
30000;SDS011;16845;48.670;9.000;2022-08-02T13:34:39;2.85;;;2.17;;
30000;SDS011;16845;48.670;9.000;2022-08-02T13:37:07;2.20;;;1.70;;
30000;SDS011;16845;48.670;9.000;2022-08-02T13:39:35;2.78;;;2.33;;
30000;SDS011;16845;48.670;9.000;2022-08-02T13:42:03;3.42;;;2.00;;
30000;SDS011;16845;48.670;9.000;2022-08-02T13:44:32;4.03;;;1.90;;
30000;SDS011;16845;48.670;9.000;2022-08-02T13:47:00;2.78;;;2.00;;
30000;SDS011;16845;48.670;9.000;2022-08-02T13:49:28;2.90;;;1.95;;
30000;SDS011;16845;48.670;9.000;2022-08-02T13:52:17;2.30;;;2.10;;
30000;SDS011;16845;48.670;9.000;2022-08-02T13:54:45;4.40;;;2.35;;
30000;SDS011;16845;48.670;9.000;2022-08-02T13:57:13;3.95;;;2.33;;
30000;SDS011;16845;48.670;9.000;2022-08-02T13:59:41;4.82;;;2.60;;
30000;SDS011;16845;48.670;9.000;2022-08-02T14:02:24;4.40;;;2.72;;
30000;SDS011;16845;48.670;9.000;2022-08-02T14:04:53;2.53;;;2.17;;
30000;SDS011;16845;48.670;9.000;2022-08-02T14:07:23;3.83;;;2.60;;
30000;SDS011;16845;48.670;9.000;2022-08-02T14:09:50;3.20;;;2.75;;
30000;SDS011;16845;48.670;9.000;2022-08-02T14:12:18;3.97;;;2.70;;
30000;SDS011;16845;48.670;9.000;2022-08-02T14:14:46;3.40;;;2.75;;
30000;SDS011;16845;48.670;9.000;2022-08-02T14:17:14;6.75;;;2.78;;
30000;SDS011;16845;48.670;9.000;2022-08-02T14:19:43;4.30;;;3.05;;
30000;SDS011;16845;48.670;9.000;2022-08-02T14:22:11;5.93;;;2.78;;
30000;SDS011;16845;48.670;9.000;2022-08-02T14:24:41;3.13;;;2.60;;
30000;SDS011;16845;48.670;9.000;2022-08-02T14:27:09;7.43;;;3.05;;
30000;SDS011;16845;48.670;9.000;2022-08-02T14:29:37;3.55;;;2.83;;
30000;SDS011;16845;48.670;9.000;2022-08-02T14:32:05;3.15;;;2.78;;
30000;SDS011;16845;48.670;9.000;2022-08-02T14:34:33;9.20;;;3.40;;
30000;SDS011;16845;48.670;9.000;2022-08-02T14:37:02;7.65;;;3.20;;
30000;SDS011;16845;48.670;9.000;2022-08-02T14:39:30;3.20;;;2.90;;
30000;SDS011;16845;48.670;9.000;2022-08-02T14:42:19;3.45;;;2.88;;
30000;SDS011;16845;48.670;9.000;2022-08-02T14:44:47;7.50;;;3.05;;
30000;SDS011;16845;48.670;9.000;2022-08-02T14:47:14;4.93;;;2.80;;
30000;SDS011;16845;48.670;9.000;2022-08-02T14:49:42;6.95;;;3.10;;
30000;SDS011;16845;48.670;9.000;2022-08-02T14:52:15;5.95;;;2.92;;
30000;SDS011;16845;48.670;9.000;2022-08-02T14:54:44;4.53;;;2.67;;
30000;SDS011;16845;48.670;9.000;2022-08-02T14:57:12;4.10;;;2.80;;
30000;SDS011;16845;48.670;9.000;2022-08-02T14:59:41;4.63;;;3.00;;
30000;SDS011;16845;48.670;9.000;2022-08-02T15:02:09;3.55;;;3.25;;
30000;SDS011;16845;48.670;9.000;2022-08-02T15:04:39;4.82;;;2.95;;
30000;SDS011;16845;48.670;9.000;2022-08-02T15:07:08;5.05;;;2.67;;
30000;SDS011;16845;48.670;9.000;2022-08-02T15:09:37;3.15;;;2.95;;
30000;SDS011;16845;48.670;9.000;2022-08-02T15:12:05;8.68;;;3.47;;
30000;SDS011;16845;48.670;9.000;2022-08-02T15:14:34;5.55;;;2.80;;
30000;SDS011;16845;48.670;9.000;2022-08-02T15:17:03;3.45;;;2.60;;
30000;SDS011;16845;48.670;9.000;2022-08-02T15:19:31;3.78;;;2.80;;
30000;SDS011;16845;48.670;9.000;2022-08-02T15:24:48;6.95;;;2.45;;
30000;SDS011;16845;48.670;9.000;2022-08-02T15:27:16;3.55;;;3.05;;